Etusivu
METAR-TAF:

METAR-TAF

Lentoasemat :

Shōnai, Japani

Leveyspiiri: 38-49N, Pituuspiiri: 139-47E, korkeus merenpinnasta: 22 m

Tämänhetkinen sää

Tämä raportti tehtiin 1 tunti ja 14 minuuttia sitten, kello 00.00 UTC
Tuuli 16 kn lännestä/lounaasta
Lämpötila 10°C
Kosteus 93%
Ilmanpaine 1012 hPa
Näkyvyys 10 km tai enemmän
Muutamia pilviä 300 ft:n korkeudessa
Hajanaisia pilviä 800 ft:n korkeudessa
Hajonneita pilviä 1000 ft:n korkeudessa
heikkoja vesikuuroja

METAR: RJSY 200000Z 25016KT 9999 -SHRA FEW003 SCT008 BKN010 10/09 Q1012

Aika: 10:14 (01:14 UTC)


TAF: puuttuu

Säähavainnot ja -ennusteet yli 4000 lentoasemalta (METAR- ja TAF-raportit).

Käytössä olevat sääasemat on merkitty karttaan keltaisilla ja punaisilla pisteillä.

Aseta hiiri pisteen päälle nähdäksesi sääaseman nimen.

Klikkaa sitten nähdäksesi säähavainnot ja -ennusteet.

Kartan vaihtaminen: klikkaa mustalla rastilla varustettuja vihreitä pisteitä, niin voit zoomata sisään; viivalla varustettua vihreää pistettä, niin voit zoomata ulos tai vihreitä nuolia, niin pääset viereisille kartoille.


METAR-TAF: